createdAt,value
2023-01-01T00:02:05.947Z,6.20
2023-01-01T00:04:34.374Z,6.20
2023-01-01T00:07:01.506Z,6.10
2023-01-01T00:09:46.951Z,6.10
2023-01-01T00:12:13.633Z,6.20
2023-01-01T00:14:42.884Z,6.30
2023-01-01T00:17:10.065Z,6.30
2023-01-01T00:19:36.822Z,6.20
2023-01-01T00:22:27.920Z,6.20
2023-01-01T00:24:50.283Z,6.20
2023-01-01T00:27:16.985Z,6.10
2023-01-01T00:29:43.691Z,6.10
2023-01-01T00:32:14.333Z,6.00
2023-01-01T00:34:44.318Z,6.00
2023-01-01T00:37:11.579Z,6.10
2023-01-01T00:39:38.383Z,6.10
2023-01-01T00:42:05.372Z,6.00
2023-01-01T00:44:32.287Z,6.00
2023-01-01T00:46:59.053Z,6.00
2023-01-01T00:49:25.722Z,6.00
2023-01-01T00:51:52.386Z,6.10
2023-01-01T00:54:19.044Z,6.10
2023-01-01T00:56:45.857Z,6.20
2023-01-01T00:59:12.818Z,6.10
2023-01-01T01:01:41.033Z,6.10
2023-01-01T01:04:09.335Z,6.10
2023-01-01T01:06:36.559Z,6.10
2023-01-01T01:09:04.490Z,6.00
2023-01-01T01:11:31.230Z,6.00
2023-01-01T01:13:57.962Z,5.90
2023-01-01T01:16:31.394Z,6.00
2023-01-01T01:19:00.246Z,5.90
2023-01-01T01:21:28.784Z,6.00
2023-01-01T01:23:58.900Z,6.10
2023-01-01T01:26:28.068Z,6.10
2023-01-01T01:28:54.815Z,6.10
2023-01-01T01:31:23.838Z,6.10
2023-01-01T01:33:50.856Z,6.10
2023-01-01T01:36:18.704Z,6.10
2023-01-01T01:38:45.926Z,6.10
2023-01-01T01:41:26.766Z,6.10
2023-01-01T01:44:00.407Z,6.10
2023-01-01T01:46:37.416Z,6.00
2023-01-01T01:49:32.113Z,6.10
2023-01-01T01:52:01.488Z,6.10
2023-01-01T01:54:29.617Z,6.10
2023-01-01T01:57:02.809Z,6.00
2023-01-01T01:59:33.545Z,5.90
2023-01-01T02:02:01.664Z,5.80
2023-01-01T02:04:28.693Z,5.80
2023-01-01T02:06:56.041Z,5.80
2023-01-01T02:09:23.164Z,5.80
2023-01-01T02:11:50.338Z,5.90
2023-01-01T02:14:17.112Z,5.90
2023-01-01T02:16:49.568Z,5.90
2023-01-01T02:19:34.507Z,5.90
2023-01-01T02:22:26.031Z,5.80
2023-01-01T02:24:59.734Z,5.80
2023-01-01T02:27:31.559Z,5.70
2023-01-01T02:30:02.016Z,5.70
2023-01-01T02:32:42.838Z,5.70
2023-01-01T02:35:35.834Z,5.70
2023-01-01T02:38:22.693Z,5.70
2023-01-01T02:40:56.725Z,5.70
2023-01-01T02:43:25.222Z,5.70
2023-01-01T02:45:53.930Z,5.70
2023-01-01T02:48:42.795Z,5.70
2023-01-01T02:51:51.301Z,5.80
2023-01-01T02:54:18.044Z,5.80
2023-01-01T02:56:47.510Z,5.90
2023-01-01T02:59:32.837Z,6.10
2023-01-01T03:02:11.408Z,6.20
2023-01-01T03:05:05.001Z,6.20
2023-01-01T03:07:54.604Z,6.10
2023-01-01T03:10:42.298Z,6.00
2023-01-01T03:13:44.594Z,6.00
2023-01-01T03:16:39.354Z,6.00
2023-01-01T03:19:15.982Z,6.10
2023-01-01T03:21:44.253Z,6.20
2023-01-01T03:24:17.498Z,6.30
2023-01-01T03:26:47.959Z,6.20
2023-01-01T03:29:15.489Z,6.20
2023-01-01T03:31:46.115Z,6.10
2023-01-01T03:34:19.581Z,6.00
2023-01-01T03:36:55.185Z,5.90
2023-01-01T03:39:34.689Z,5.80
2023-01-01T03:42:25.259Z,5.80
2023-01-01T03:45:17.203Z,5.80
2023-01-01T03:47:44.036Z,5.70
2023-01-01T03:50:11.746Z,5.80
2023-01-01T03:53:07.900Z,5.70
2023-01-01T03:55:44.134Z,5.70
2023-01-01T03:58:21.134Z,5.60
2023-01-01T04:00:55.372Z,5.50
2023-01-01T04:03:28.503Z,5.50
2023-01-01T04:05:55.351Z,5.60
2023-01-01T04:08:22.330Z,5.50
2023-01-01T04:10:56.938Z,5.50
2023-01-01T04:13:23.762Z,5.50
2023-01-01T04:15:50.639Z,5.40
2023-01-01T04:18:17.349Z,5.30
2023-01-01T04:20:44.038Z,5.30
2023-01-01T04:23:10.711Z,5.30
2023-01-01T04:25:37.374Z,5.30
2023-01-01T04:28:04.234Z,5.20
2023-01-01T04:30:30.902Z,5.20
2023-01-01T04:32:57.607Z,5.20
2023-01-01T04:35:24.318Z,5.20
2023-01-01T04:37:50.977Z,5.20
2023-01-01T04:40:18.035Z,5.20
2023-01-01T04:42:44.747Z,5.00
2023-01-01T04:45:15.270Z,5.00
2023-01-01T04:47:42.584Z,5.00
2023-01-01T04:50:10.101Z,5.10
2023-01-01T04:52:37.161Z,5.10
2023-01-01T04:55:04.215Z,5.10
2023-01-01T04:57:31.472Z,5.10
2023-01-01T04:59:58.248Z,5.00
2023-01-01T05:02:25.647Z,4.90
2023-01-01T05:04:52.474Z,4.80
2023-01-01T05:07:19.650Z,4.80
2023-01-01T05:09:46.312Z,4.80
2023-01-01T05:12:12.996Z,4.80
2023-01-01T05:14:39.876Z,4.80
2023-01-01T05:17:06.578Z,4.80
2023-01-01T05:19:33.288Z,4.70
2023-01-01T05:22:03.960Z,4.70
2023-01-01T05:24:36.366Z,4.70
2023-01-01T05:27:03.154Z,4.60
2023-01-01T05:29:29.806Z,4.60
2023-01-01T05:31:56.522Z,4.60
2023-01-01T05:34:23.398Z,4.70
2023-01-01T05:36:50.085Z,4.70
2023-01-01T05:39:16.778Z,4.60
2023-01-01T05:41:43.469Z,4.60
2023-01-01T05:44:11.512Z,4.60
2023-01-01T05:46:38.272Z,4.60
2023-01-01T05:49:05.008Z,4.50
2023-01-01T05:53:58.222Z,4.30
2023-01-01T05:56:26.019Z,4.30
2023-01-01T05:58:52.862Z,4.30
2023-01-01T06:01:25.065Z,4.30
2023-01-01T06:03:52.811Z,4.20
2023-01-01T06:06:28.745Z,4.10
2023-01-01T06:08:58.298Z,4.10
2023-01-01T06:11:25.710Z,4.20
2023-01-01T06:13:54.211Z,4.20
2023-01-01T06:16:21.357Z,4.00
2023-01-01T06:18:48.417Z,4.20
2023-01-01T06:21:17.712Z,4.30
2023-01-01T06:23:44.893Z,4.30
2023-01-01T06:26:13.050Z,4.40
2023-01-01T06:28:40.539Z,4.40
2023-01-01T06:31:09.056Z,4.40
2023-01-01T06:33:36.562Z,4.50
2023-01-01T06:36:06.862Z,4.50
2023-01-01T06:38:38.725Z,4.40
2023-01-01T06:41:11.836Z,4.40
2023-01-01T06:43:38.646Z,4.30
2023-01-01T06:46:06.789Z,4.00
2023-01-01T06:48:35.801Z,4.10
2023-01-01T06:51:11.243Z,4.30
2023-01-01T06:53:38.279Z,4.50
2023-01-01T06:56:05.760Z,4.50
2023-01-01T06:58:32.690Z,4.40
2023-01-01T07:01:21.264Z,4.30
2023-01-01T07:04:15.133Z,4.30
2023-01-01T07:06:42.530Z,4.20
2023-01-01T07:09:09.541Z,4.20
2023-01-01T07:11:36.738Z,4.30
2023-01-01T07:14:03.849Z,4.50
2023-01-01T07:16:30.703Z,4.40
2023-01-01T07:18:57.555Z,4.50
2023-01-01T07:21:37.254Z,4.50
2023-01-01T07:24:05.783Z,4.50
2023-01-01T07:26:33.665Z,4.50
2023-01-01T07:29:06.853Z,4.40
2023-01-01T07:31:39.610Z,4.40
2023-01-01T07:34:07.709Z,4.40
2023-01-01T07:36:34.414Z,4.50
2023-01-01T07:39:01.349Z,4.60
2023-01-01T07:41:28.133Z,4.60
2023-01-01T07:43:54.925Z,4.60
2023-01-01T07:46:21.939Z,4.70
2023-01-01T07:48:48.793Z,4.90
2023-01-01T07:51:15.491Z,5.00
2023-01-01T07:53:42.269Z,5.00
2023-01-01T07:56:09.179Z,5.10
2023-01-01T07:58:39.580Z,5.20
2023-01-01T08:01:11.070Z,5.30
2023-01-01T08:03:37.847Z,5.40
2023-01-01T08:06:12.907Z,5.60
2023-01-01T08:08:40.150Z,5.70
2023-01-01T08:11:07.076Z,5.70
2023-01-01T08:13:33.796Z,5.90
2023-01-01T08:16:00.588Z,5.90
2023-01-01T08:18:27.464Z,5.90
2023-01-01T08:20:54.357Z,6.00
2023-01-01T08:23:21.147Z,6.10
2023-01-01T08:25:47.854Z,6.30
2023-01-01T08:28:14.577Z,6.40
2023-01-01T08:30:41.413Z,6.50
2023-01-01T08:33:08.077Z,6.60
2023-01-01T08:35:37.770Z,6.70
2023-01-01T08:38:04.459Z,6.90
2023-01-01T08:40:31.171Z,7.00
2023-01-01T08:42:57.883Z,7.10
2023-01-01T08:45:24.554Z,7.30
2023-01-01T08:47:51.251Z,7.50
2023-01-01T08:50:17.934Z,7.50
2023-01-01T08:52:44.627Z,7.60
2023-01-01T08:55:11.333Z,7.70
2023-01-01T08:57:38.025Z,7.80
2023-01-01T09:00:05.778Z,7.90
2023-01-01T09:02:32.619Z,8.00
2023-01-01T09:04:59.487Z,8.20
2023-01-01T09:07:26.182Z,8.30
2023-01-01T09:09:52.839Z,8.40
2023-01-01T09:12:19.539Z,8.60
2023-01-01T09:14:49.305Z,8.70
2023-01-01T09:17:16.133Z,8.90
2023-01-01T09:19:42.857Z,9.00
2023-01-01T09:22:12.901Z,9.10
2023-01-01T09:24:39.588Z,9.20
2023-01-01T09:27:06.274Z,9.30
2023-01-01T09:29:32.979Z,9.40
2023-01-01T09:31:59.741Z,9.50
2023-01-01T09:34:26.515Z,9.70
2023-01-01T09:36:53.190Z,9.90
2023-01-01T09:39:19.854Z,10.00
2023-01-01T09:41:57.533Z,10.10
2023-01-01T09:44:49.442Z,10.30
2023-01-01T09:47:30.833Z,10.40
2023-01-01T09:50:03.274Z,10.60
2023-01-01T09:52:39.738Z,10.70
2023-01-01T09:55:17.989Z,10.80
2023-01-01T09:57:44.777Z,11.00
2023-01-01T10:00:19.764Z,11.30
2023-01-01T10:02:58.696Z,11.50
2023-01-01T10:05:43.653Z,11.60
2023-01-01T10:08:23.488Z,11.90
2023-01-01T10:11:14.858Z,12.00
2023-01-01T10:13:43.729Z,12.30
2023-01-01T10:16:32.756Z,12.40
2023-01-01T10:19:07.333Z,12.60
2023-01-01T10:21:46.541Z,12.80
2023-01-01T10:24:48.443Z,13.10
2023-01-01T10:27:39.971Z,13.20
2023-01-01T10:30:16.726Z,13.30
2023-01-01T10:32:44.725Z,13.40
2023-01-01T10:35:14.930Z,13.50
2023-01-01T10:37:42.243Z,13.60
2023-01-01T10:40:18.701Z,13.70
2023-01-01T10:42:54.084Z,13.90
2023-01-01T10:45:34.098Z,14.00
2023-01-01T10:48:20.366Z,14.20
2023-01-01T10:50:51.664Z,14.40
2023-01-01T10:53:26.201Z,14.40
2023-01-01T10:56:12.420Z,14.50
2023-01-01T10:58:56.463Z,14.50
2023-01-01T11:01:28.661Z,14.60
2023-01-01T11:04:02.626Z,14.60
2023-01-01T11:06:40.845Z,14.50
2023-01-01T11:09:23.904Z,14.50
2023-01-01T11:12:02.077Z,14.60
2023-01-01T11:14:56.144Z,14.70
2023-01-01T11:17:25.381Z,14.70
2023-01-01T11:19:58.133Z,14.50
2023-01-01T11:22:35.861Z,14.50
2023-01-01T11:25:15.574Z,14.30
2023-01-01T11:27:42.337Z,14.30
2023-01-01T11:30:28.976Z,14.30
2023-01-01T11:33:02.625Z,14.30
2023-01-01T11:35:46.095Z,14.40
2023-01-01T11:38:21.988Z,14.40
2023-01-01T11:40:55.059Z,14.40
2023-01-01T11:43:24.792Z,14.50
2023-01-01T11:45:53.194Z,14.50
2023-01-01T11:48:29.596Z,14.60
2023-01-01T11:50:58.100Z,14.80
2023-01-01T11:53:24.725Z,15.00
2023-01-01T11:56:14.107Z,15.10
2023-01-01T11:58:51.757Z,15.10
2023-01-01T12:01:26.748Z,15.20
2023-01-01T12:04:28.700Z,15.30
2023-01-01T12:07:06.427Z,15.20
2023-01-01T12:09:54.502Z,15.40
2023-01-01T12:12:55.378Z,15.50
2023-01-01T12:15:45.791Z,15.80
2023-01-01T12:18:27.535Z,15.90
2023-01-01T12:21:20.600Z,16.00
2023-01-01T12:23:47.382Z,16.10
2023-01-01T12:26:29.368Z,16.10
2023-01-01T12:29:19.934Z,16.10
2023-01-01T12:32:07.027Z,16.10
2023-01-01T12:34:49.952Z,16.30
2023-01-01T12:37:53.481Z,16.30
2023-01-01T12:40:29.489Z,16.30
2023-01-01T12:43:03.630Z,16.30
2023-01-01T12:46:07.286Z,16.40
2023-01-01T12:48:53.511Z,16.50
2023-01-01T12:52:07.805Z,16.70
2023-01-01T12:55:02.672Z,16.60
2023-01-01T12:57:46.917Z,16.50
2023-01-01T13:00:16.539Z,16.30
2023-01-01T13:02:58.274Z,16.20
2023-01-01T13:05:43.667Z,16.30
2023-01-01T13:08:10.382Z,16.60
2023-01-01T13:10:39.837Z,16.60
2023-01-01T13:13:06.648Z,17.20
2023-01-01T13:15:39.489Z,17.80
2023-01-01T13:18:14.935Z,18.60
2023-01-01T13:20:53.712Z,19.60
2023-01-01T13:23:33.284Z,21.00
2023-01-01T13:26:18.431Z,21.70
2023-01-01T13:29:05.463Z,22.40
2023-01-01T13:31:38.488Z,23.60
2023-01-01T13:34:30.314Z,24.40
2023-01-01T13:37:13.770Z,24.80
2023-01-01T13:40:03.664Z,24.00
2023-01-01T13:43:09.324Z,23.10
2023-01-01T13:48:32.960Z,23.30
2023-01-01T13:52:04.775Z,24.40
2023-01-01T13:54:52.868Z,25.50
2023-01-01T13:57:56.552Z,26.10
2023-01-01T14:00:34.387Z,27.90
2023-01-01T14:03:06.354Z,29.00
2023-01-01T14:05:49.765Z,29.90
2023-01-01T14:08:32.460Z,30.50
2023-01-01T14:11:03.158Z,30.50
2023-01-01T14:13:39.205Z,30.50
2023-01-01T14:16:10.796Z,30.70
2023-01-01T14:18:49.752Z,31.20
2023-01-01T14:21:22.465Z,31.30
2023-01-01T14:23:53.396Z,31.50
2023-01-01T14:26:22.913Z,31.50
2023-01-01T14:28:54.478Z,32.00
2023-01-01T14:31:24.453Z,32.10
2023-01-01T14:33:51.143Z,32.20
2023-01-01T14:36:22.563Z,32.10
2023-01-01T14:38:51.741Z,31.80
2023-01-01T14:41:48.286Z,30.60
2023-01-01T14:44:17.491Z,30.00
2023-01-01T14:46:47.001Z,29.20
2023-01-01T14:49:22.201Z,27.30
2023-01-01T14:51:56.891Z,25.70
2023-01-01T14:54:30.136Z,24.70
2023-01-01T14:56:56.888Z,23.80
2023-01-01T14:59:32.377Z,23.20
2023-01-01T15:02:30.209Z,22.90
2023-01-01T15:04:58.195Z,22.80
2023-01-01T15:07:30.411Z,22.30
2023-01-01T15:10:03.561Z,20.70
2023-01-01T15:12:33.895Z,19.80
2023-01-01T15:15:01.633Z,19.00
2023-01-01T15:17:28.465Z,18.00
2023-01-01T15:20:03.491Z,17.20
2023-01-01T15:22:35.778Z,16.30
2023-01-01T15:25:02.820Z,15.70
2023-01-01T15:27:35.402Z,14.90
2023-01-01T15:30:05.874Z,14.10
2023-01-01T15:32:38.596Z,13.60
2023-01-01T15:35:17.923Z,13.20
2023-01-01T15:37:49.637Z,12.70
2023-01-01T15:40:16.236Z,12.40
2023-01-01T15:42:48.770Z,12.30
2023-01-01T15:45:31.747Z,11.90
2023-01-01T15:48:10.635Z,11.70
2023-01-01T15:50:57.803Z,11.30
2023-01-01T15:53:27.503Z,11.00
2023-01-01T15:56:03.591Z,10.70
2023-01-01T15:58:33.260Z,10.50
2023-01-01T16:01:03.768Z,10.40
2023-01-01T16:03:32.167Z,10.30
2023-01-01T16:05:59.380Z,10.30
2023-01-01T16:08:26.183Z,10.10
2023-01-01T16:10:53.216Z,9.80
2023-01-01T16:13:20.174Z,9.70
2023-01-01T16:15:51.957Z,9.50
2023-01-01T16:18:19.154Z,9.30
2023-01-01T16:20:46.342Z,9.30
2023-01-01T16:23:13.209Z,9.30
2023-01-01T16:25:40.107Z,9.20
2023-01-01T16:28:06.861Z,9.30
2023-01-01T16:30:33.564Z,9.20
2023-01-01T16:33:00.700Z,9.20
2023-01-01T16:35:27.484Z,9.00
2023-01-01T16:37:54.140Z,8.80
2023-01-01T16:40:20.853Z,8.60
2023-01-01T16:42:47.522Z,8.50
2023-01-01T16:45:21.069Z,8.40
2023-01-01T16:47:47.971Z,8.30
2023-01-01T16:50:14.856Z,8.30
2023-01-01T16:52:45.017Z,8.20
2023-01-01T16:55:12.831Z,8.10
2023-01-01T16:57:40.158Z,8.00
2023-01-01T17:00:09.038Z,7.90
2023-01-01T17:02:36.325Z,7.80
2023-01-01T17:05:03.306Z,7.70
2023-01-01T17:07:29.983Z,7.60
2023-01-01T17:09:56.638Z,7.60
2023-01-01T17:12:23.311Z,7.50
2023-01-01T17:14:49.963Z,7.30
2023-01-01T17:17:16.643Z,7.30
2023-01-01T17:19:43.375Z,7.30
2023-01-01T17:22:10.125Z,7.30
2023-01-01T17:24:36.770Z,7.30
2023-01-01T17:27:03.558Z,7.20
2023-01-01T17:29:30.229Z,7.00
2023-01-01T17:31:56.918Z,6.80
2023-01-01T17:34:23.642Z,6.60
2023-01-01T17:36:50.379Z,6.60
2023-01-01T17:39:17.022Z,6.50
2023-01-01T17:41:44.726Z,6.50
2023-01-01T17:44:11.616Z,6.60
2023-01-01T17:46:38.578Z,6.60
2023-01-01T17:49:06.215Z,6.40
2023-01-01T17:51:32.906Z,6.20
2023-01-01T17:54:00.414Z,6.30
2023-01-01T17:56:27.158Z,6.30
2023-01-01T17:58:54.195Z,6.40
2023-01-01T18:01:24.399Z,6.40
2023-01-01T18:03:56.302Z,6.10
2023-01-01T18:06:23.227Z,6.10
2023-01-01T18:08:55.482Z,6.10
2023-01-01T18:11:22.733Z,6.20
2023-01-01T18:13:49.511Z,6.30
2023-01-01T18:16:16.405Z,6.20
2023-01-01T18:18:43.218Z,6.10
2023-01-01T18:21:20.740Z,5.90
2023-01-01T18:23:48.742Z,5.80
2023-01-01T18:26:15.501Z,5.70
2023-01-01T18:28:43.011Z,5.60
2023-01-01T18:31:16.885Z,5.60
2023-01-01T18:33:44.267Z,5.60
2023-01-01T18:36:17.388Z,5.50
2023-01-01T18:38:48.435Z,5.40
2023-01-01T18:41:20.992Z,5.30
2023-01-01T18:43:47.573Z,5.20
2023-01-01T18:46:14.305Z,5.30
2023-01-01T18:48:42.675Z,5.30
2023-01-01T18:51:22.670Z,5.20
2023-01-01T18:53:51.637Z,5.20
2023-01-01T18:56:20.484Z,5.20
2023-01-01T18:58:49.299Z,5.20
2023-01-01T19:01:21.591Z,5.20
2023-01-01T19:03:51.621Z,5.20
2023-01-01T19:06:32.578Z,5.10
2023-01-01T19:09:21.553Z,5.10
2023-01-01T19:11:49.475Z,5.00
2023-01-01T19:14:22.779Z,5.10
2023-01-01T19:16:51.761Z,5.10
2023-01-01T19:19:21.467Z,5.20
2023-01-01T19:21:52.119Z,5.20
2023-01-01T19:24:23.617Z,5.00
2023-01-01T19:26:59.919Z,4.90
2023-01-01T19:29:30.427Z,4.90
2023-01-01T19:31:58.440Z,4.90
2023-01-01T19:34:25.623Z,4.80
2023-01-01T19:36:52.658Z,4.80
2023-01-01T19:39:19.750Z,4.80
2023-01-01T19:41:47.107Z,4.80
2023-01-01T19:44:13.976Z,4.80
2023-01-01T19:46:41.493Z,4.90
2023-01-01T19:49:08.320Z,4.80
2023-01-01T19:51:35.091Z,4.70
2023-01-01T19:54:01.791Z,4.70
2023-01-01T19:56:28.532Z,4.70
2023-01-01T19:58:55.199Z,4.70
2023-01-01T20:01:22.054Z,4.80
2023-01-01T20:03:55.404Z,4.70
2023-01-01T20:06:23.701Z,4.80
2023-01-01T20:08:50.647Z,4.70
2023-01-01T20:11:17.552Z,4.80
2023-01-01T20:13:44.211Z,4.80
2023-01-01T20:16:11.045Z,4.90
2023-01-01T20:18:37.777Z,4.90
2023-01-01T20:21:26.302Z,4.90
2023-01-01T20:23:54.222Z,4.90
2023-01-01T20:26:21.054Z,5.00
2023-01-01T20:29:06.565Z,4.80
2023-01-01T20:31:33.330Z,4.70
2023-01-01T20:34:00.010Z,4.60
2023-01-01T20:36:45.432Z,4.20
2023-01-01T20:39:12.545Z,4.20
2023-01-01T20:41:39.259Z,4.10
2023-01-01T20:44:05.959Z,4.10
2023-01-01T20:46:33.358Z,4.20
2023-01-01T20:49:00.101Z,4.40
2023-01-01T20:51:27.070Z,4.50
2023-01-01T20:53:53.768Z,4.60
2023-01-01T20:56:20.434Z,4.70
2023-01-01T20:58:50.214Z,4.70
2023-01-01T21:01:20.079Z,4.70
2023-01-01T21:03:46.889Z,4.60
2023-01-01T21:06:16.051Z,4.70
2023-01-01T21:08:47.874Z,4.70
2023-01-01T21:11:15.469Z,4.80
2023-01-01T21:13:44.622Z,4.70
2023-01-01T21:16:19.792Z,4.70
2023-01-01T21:18:48.159Z,4.70
2023-01-01T21:21:19.778Z,4.60
2023-01-01T21:23:47.206Z,4.70
2023-01-01T21:26:39.617Z,4.70
2023-01-01T21:29:14.033Z,4.70
2023-01-01T21:31:42.898Z,4.70
2023-01-01T21:34:37.840Z,4.60
2023-01-01T21:37:49.886Z,4.50
2023-01-01T21:40:28.524Z,4.40
2023-01-01T21:43:32.312Z,4.30
2023-01-01T21:46:08.079Z,4.30
2023-01-01T21:48:39.411Z,4.40
2023-01-01T21:51:21.005Z,4.40
2023-01-01T21:53:47.819Z,4.40
2023-01-01T21:56:23.593Z,4.40
2023-01-01T21:59:09.061Z,4.40
2023-01-01T22:01:38.321Z,4.30
2023-01-01T22:04:11.221Z,4.30
2023-01-01T22:06:46.284Z,4.40
2023-01-01T22:09:26.694Z,4.30
2023-01-01T22:11:59.090Z,4.30
2023-01-01T22:14:39.048Z,4.30
2023-01-01T22:17:29.642Z,4.20
2023-01-01T22:20:19.566Z,4.10
2023-01-01T22:22:46.251Z,3.90
2023-01-01T22:25:26.864Z,3.90
2023-01-01T22:27:54.081Z,3.90
2023-01-01T22:30:20.688Z,4.00
2023-01-01T22:32:54.097Z,3.90
2023-01-01T22:35:27.819Z,3.90
2023-01-01T22:37:56.797Z,3.90
2023-01-01T22:40:28.984Z,3.80
2023-01-01T22:43:00.577Z,3.80
2023-01-01T22:45:27.590Z,3.70
2023-01-01T22:47:54.803Z,3.70
2023-01-01T22:50:27.248Z,3.70
2023-01-01T22:52:53.904Z,3.70
2023-01-01T22:55:20.642Z,3.70
2023-01-01T22:57:47.481Z,3.60
2023-01-01T23:00:17.122Z,3.70
2023-01-01T23:02:44.724Z,3.70
2023-01-01T23:05:12.497Z,3.70
2023-01-01T23:07:42.096Z,3.60
2023-01-01T23:10:12.131Z,3.60
2023-01-01T23:12:39.051Z,3.50
2023-01-01T23:15:25.127Z,3.50
2023-01-01T23:17:51.926Z,3.60
2023-01-01T23:20:18.750Z,3.50
2023-01-01T23:22:49.601Z,3.50
2023-01-01T23:25:19.576Z,3.50
2023-01-01T23:27:47.201Z,3.50
2023-01-01T23:30:14.238Z,3.50
2023-01-01T23:32:42.217Z,3.40
2023-01-01T23:35:09.725Z,3.40
2023-01-01T23:37:37.095Z,3.40
2023-01-01T23:40:04.183Z,3.40
2023-01-01T23:42:30.836Z,3.40
2023-01-01T23:44:57.494Z,3.30
2023-01-01T23:47:24.223Z,3.30
2023-01-01T23:49:50.931Z,3.30
2023-01-01T23:52:17.593Z,3.20
2023-01-01T23:54:44.240Z,3.20
2023-01-01T23:57:10.884Z,3.20
2023-01-01T23:59:37.543Z,3.10
